sensor_id;sensor_type;location;lat;lon;timestamp;pressure;altitude;pressure_sealevel;temperature;humidity
7337;BME280;54510;42.016;23.098;2023-03-23T00:01:33;-21381.50;;;8.97;74.03
7337;BME280;54510;42.016;23.098;2023-03-23T00:04:02;-21375.66;;;8.76;75.01
7337;BME280;54510;42.016;23.098;2023-03-23T00:06:28;-21381.50;;;8.97;74.46
7337;BME280;54510;42.016;23.098;2023-03-23T00:08:58;-21389.28;;;9.26;74.13
7337;BME280;54510;42.016;23.098;2023-03-23T00:11:25;-21389.84;;;9.28;73.82
7337;BME280;54510;42.016;23.098;2023-03-23T00:13:53;-21391.25;;;9.33;73.58
7337;BME280;54510;42.016;23.098;2023-03-23T00:16:20;-21383.72;;;9.05;73.97
7337;BME280;54510;42.016;23.098;2023-03-23T00:18:54;-21382.47;;;9.01;74.27
7337;BME280;54510;42.016;23.098;2023-03-23T00:21:20;-21383.44;;;9.04;74.52
7337;BME280;54510;42.016;23.098;2023-03-23T00:23:51;-21387.06;;;9.18;73.92
7337;BME280;54510;42.016;23.098;2023-03-23T00:26:17;-21383.03;;;9.03;74.05
7337;BME280;54510;42.016;23.098;2023-03-23T00:28:43;-21381.94;;;8.99;74.07
7337;BME280;54510;42.016;23.098;2023-03-23T00:31:11;-21382.34;;;9.00;73.41
7337;BME280;54510;42.016;23.098;2023-03-23T00:33:37;-21380.94;;;8.95;73.42
7337;BME280;54510;42.016;23.098;2023-03-23T00:36:09;-21381.22;;;8.96;73.51
7337;BME280;54510;42.016;23.098;2023-03-23T00:38:35;-21376.78;;;8.80;74.01
7337;BME280;54510;42.016;23.098;2023-03-23T00:41:00;-21374.28;;;8.71;74.48
7337;BME280;54510;42.016;23.098;2023-03-23T00:43:27;-21369.41;;;8.53;74.93
7337;BME280;54510;42.016;23.098;2023-03-23T00:45:54;-21369.41;;;8.53;75.55
7337;BME280;54510;42.016;23.098;2023-03-23T00:48:19;-21374.84;;;8.73;75.11
7337;BME280;54510;42.016;23.098;2023-03-23T00:50:45;-21374.00;;;8.70;74.80
7337;BME280;54510;42.016;23.098;2023-03-23T00:53:10;-21375.53;;;8.76;74.56
7337;BME280;54510;42.016;23.098;2023-03-23T00:55:36;-21374.56;;;8.72;74.73
7337;BME280;54510;42.016;23.098;2023-03-23T00:58:01;-21375.38;;;8.75;74.54
7337;BME280;54510;42.016;23.098;2023-03-23T01:00:26;-21377.06;;;8.81;74.17
7337;BME280;54510;42.016;23.098;2023-03-23T01:02:54;-21375.09;;;8.74;74.44
7337;BME280;54510;42.016;23.098;2023-03-23T01:05:20;-21369.81;;;8.55;74.68
7337;BME280;54510;42.016;23.098;2023-03-23T01:07:45;-21372.47;;;8.64;74.53
7337;BME280;54510;42.016;23.098;2023-03-23T01:10:11;-21371.06;;;8.59;75.10
7337;BME280;54510;42.016;23.098;2023-03-23T01:12:40;-21370.66;;;8.58;74.83
7337;BME280;54510;42.016;23.098;2023-03-23T01:15:06;-21366.34;;;8.42;75.56
7337;BME280;54510;42.016;23.098;2023-03-23T01:17:31;-21371.06;;;8.59;75.53
7337;BME280;54510;42.016;23.098;2023-03-23T01:19:56;-21375.25;;;8.75;74.63
7337;BME280;54510;42.016;23.098;2023-03-23T01:22:22;-21370.78;;;8.58;74.58
7337;BME280;54510;42.016;23.098;2023-03-23T01:24:47;-21372.31;;;8.64;74.59
7337;BME280;54510;42.016;23.098;2023-03-23T01:27:12;-21370.38;;;8.57;74.28
7337;BME280;54510;42.016;23.098;2023-03-23T01:29:37;-21365.22;;;8.38;75.24
7337;BME280;54510;42.016;23.098;2023-03-23T01:32:02;-21368.00;;;8.48;74.68
7337;BME280;54510;42.016;23.098;2023-03-23T01:34:28;-21363.84;;;8.33;74.98
7337;BME280;54510;42.016;23.098;2023-03-23T01:36:53;-21358.69;;;8.14;75.51
7337;BME280;54510;42.016;23.098;2023-03-23T01:39:18;-21355.19;;;8.02;75.93
7337;BME280;54510;42.016;23.098;2023-03-23T01:41:44;-21353.53;;;7.96;75.77
7337;BME280;54510;42.016;23.098;2023-03-23T01:46:41;-21354.50;;;7.99;76.71
7337;BME280;54510;42.016;23.098;2023-03-23T01:49:07;-21354.50;;;7.99;76.10
7337;BME280;54510;42.016;23.098;2023-03-23T01:51:35;-21345.16;;;7.65;77.37
7337;BME280;54510;42.016;23.098;2023-03-23T01:54:03;-21342.53;;;7.56;77.47
7337;BME280;54510;42.016;23.098;2023-03-23T01:56:39;-21346.00;;;7.68;77.44
7337;BME280;54510;42.016;23.098;2023-03-23T01:59:06;-21350.19;;;7.83;76.36
7337;BME280;54510;42.016;23.098;2023-03-23T02:01:32;-21352.56;;;7.92;76.22
7337;BME280;54510;42.016;23.098;2023-03-23T02:04:01;-21348.66;;;7.78;75.96
7337;BME280;54510;42.016;23.098;2023-03-23T02:06:27;-21349.63;;;7.81;76.40
7337;BME280;54510;42.016;23.098;2023-03-23T02:08:53;-21344.34;;;7.62;76.32
7337;BME280;54510;42.016;23.098;2023-03-23T02:11:19;-21346.84;;;7.71;76.27
7337;BME280;54510;42.016;23.098;2023-03-23T02:13:45;-21348.66;;;7.78;76.67
7337;BME280;54510;42.016;23.098;2023-03-23T02:18:51;-21336.81;;;7.35;77.86
7337;BME280;54510;42.016;23.098;2023-03-23T02:31:56;-21335.16;;;7.29;78.41
7337;BME280;54510;42.016;23.098;2023-03-23T02:37:14;-21338.06;;;7.39;77.49
7337;BME280;54510;42.016;23.098;2023-03-23T02:39:43;-21338.50;;;7.41;77.65
7337;BME280;54510;42.016;23.098;2023-03-23T02:42:11;-21344.34;;;7.62;77.54
7337;BME280;54510;42.016;23.098;2023-03-23T02:44:38;-21344.19;;;7.62;77.54
7337;BME280;54510;42.016;23.098;2023-03-23T02:47:06;-21348.38;;;7.77;76.98
7337;BME280;54510;42.016;23.098;2023-03-23T02:49:33;-21349.50;;;7.81;76.71
7337;BME280;54510;42.016;23.098;2023-03-23T02:52:00;-21348.78;;;7.78;76.65
7337;BME280;54510;42.016;23.098;2023-03-23T02:54:28;-21346.16;;;7.69;76.77
7337;BME280;54510;42.016;23.098;2023-03-23T02:56:54;-21345.59;;;7.67;76.92
7337;BME280;54510;42.016;23.098;2023-03-23T02:59:20;-21342.38;;;7.55;77.37
7337;BME280;54510;42.016;23.098;2023-03-23T03:01:48;-21340.56;;;7.48;77.43
7337;BME280;54510;42.016;23.098;2023-03-23T03:04:16;-21337.66;;;7.38;77.14
7337;BME280;54510;42.016;23.098;2023-03-23T03:12:01;-21335.69;;;7.31;77.49
7337;BME280;54510;42.016;23.098;2023-03-23T03:14:34;-21335.16;;;7.29;77.50
7337;BME280;54510;42.016;23.098;2023-03-23T03:19:35;-21332.63;;;7.20;77.95
7337;BME280;54510;42.016;23.098;2023-03-23T03:22:02;-21337.50;;;7.37;77.43
7337;BME280;54510;42.016;23.098;2023-03-23T03:24:29;-21338.63;;;7.41;77.06
7337;BME280;54510;42.016;23.098;2023-03-23T03:26:56;-21342.53;;;7.56;76.96
7337;BME280;54510;42.016;23.098;2023-03-23T03:29:25;-21341.41;;;7.51;76.42
7337;BME280;54510;42.016;23.098;2023-03-23T03:31:51;-21334.16;;;7.25;78.13
7337;BME280;54510;42.016;23.098;2023-03-23T03:34:20;-21341.56;;;7.52;77.70
7337;BME280;54510;42.016;23.098;2023-03-23T03:36:47;-21343.22;;;7.58;76.68
7337;BME280;54510;42.016;23.098;2023-03-23T03:39:15;-21346.97;;;7.72;76.67
7337;BME280;54510;42.016;23.098;2023-03-23T03:41:42;-21343.91;;;7.61;75.54
7337;BME280;54510;42.016;23.098;2023-03-23T03:44:08;-21341.00;;;7.50;76.73
7337;BME280;54510;42.016;23.098;2023-03-23T03:46:33;-21340.72;;;7.49;76.70
7337;BME280;54510;42.016;23.098;2023-03-23T03:48:59;-21342.25;;;7.54;76.46
7337;BME280;54510;42.016;23.098;2023-03-23T03:51:26;-21340.03;;;7.46;76.23
7337;BME280;54510;42.016;23.098;2023-03-23T03:53:51;-21340.84;;;7.49;76.52
7337;BME280;54510;42.016;23.098;2023-03-23T03:56:17;-21340.03;;;7.46;76.68
7337;BME280;54510;42.016;23.098;2023-03-23T03:58:42;-21334.16;;;7.25;76.80
7337;BME280;54510;42.016;23.098;2023-03-23T04:01:08;-21334.16;;;7.25;76.95
7337;BME280;54510;42.016;23.098;2023-03-23T04:03:35;-21329.28;;;7.07;76.35
7337;BME280;54510;42.016;23.098;2023-03-23T04:06:01;-21328.31;;;7.04;77.29
7337;BME280;54510;42.016;23.098;2023-03-23T04:08:26;-21329.72;;;7.09;76.61
7337;BME280;54510;42.016;23.098;2023-03-23T04:10:51;-21329.44;;;7.08;76.77
7337;BME280;54510;42.016;23.098;2023-03-23T04:13:17;-21328.88;;;7.06;76.58
7337;BME280;54510;42.016;23.098;2023-03-23T04:15:45;-21332.63;;;7.20;76.67
7337;BME280;54510;42.016;23.098;2023-03-23T04:18:11;-21334.88;;;7.28;76.82
7337;BME280;54510;42.016;23.098;2023-03-23T04:20:37;-21330.41;;;7.11;77.07
7337;BME280;54510;42.016;23.098;2023-03-23T04:23:02;-21332.22;;;7.18;77.12
7337;BME280;54510;42.016;23.098;2023-03-23T04:25:28;-21327.06;;;6.99;76.96
7337;BME280;54510;42.016;23.098;2023-03-23T04:27:53;-21325.25;;;6.93;77.74
7337;BME280;54510;42.016;23.098;2023-03-23T04:30:22;-21327.34;;;7.00;77.23
7337;BME280;54510;42.016;23.098;2023-03-23T04:32:49;-21328.88;;;7.06;77.85
7337;BME280;54510;42.016;23.098;2023-03-23T04:35:16;-21329.97;;;7.10;77.58
7337;BME280;54510;42.016;23.098;2023-03-23T04:37:41;-21327.47;;;7.01;77.31
7337;BME280;54510;42.016;23.098;2023-03-23T04:40:08;-21322.72;;;6.84;77.70
7337;BME280;54510;42.016;23.098;2023-03-23T04:42:40;-21326.78;;;6.98;77.36
7337;BME280;54510;42.016;23.098;2023-03-23T04:45:06;-21324.69;;;6.91;77.77
7337;BME280;54510;42.016;23.098;2023-03-23T04:47:33;-21323.72;;;6.87;77.73
7337;BME280;54510;42.016;23.098;2023-03-23T04:50:04;-21326.91;;;6.99;77.76
7337;BME280;54510;42.016;23.098;2023-03-23T04:52:31;-21324.13;;;6.89;76.58
7337;BME280;54510;42.016;23.098;2023-03-23T04:54:56;-21319.81;;;6.73;77.04
7337;BME280;54510;42.016;23.098;2023-03-23T04:57:22;-21328.44;;;7.04;76.91
7337;BME280;54510;42.016;23.098;2023-03-23T04:59:47;-21328.31;;;7.04;75.92
7337;BME280;54510;42.016;23.098;2023-03-23T05:02:13;-21329.28;;;7.07;76.46
7337;BME280;54510;42.016;23.098;2023-03-23T05:04:39;-21332.34;;;7.19;75.81
7337;BME280;54510;42.016;23.098;2023-03-23T05:07:06;-21335.69;;;7.31;75.89
7337;BME280;54510;42.016;23.098;2023-03-23T05:09:31;-21350.47;;;7.84;74.61
7337;BME280;54510;42.016;23.098;2023-03-23T05:11:57;-21349.63;;;7.81;73.29
7337;BME280;54510;42.016;23.098;2023-03-23T05:14:24;-21331.78;;;7.17;74.54
7337;BME280;54510;42.016;23.098;2023-03-23T05:16:50;-21340.44;;;7.48;74.98
7337;BME280;54510;42.016;23.098;2023-03-23T05:19:17;-21343.78;;;7.60;73.94
7337;BME280;54510;42.016;23.098;2023-03-23T05:21:42;-21346.84;;;7.71;74.02
7337;BME280;54510;42.016;23.098;2023-03-23T05:24:09;-21340.28;;;7.47;74.73
7337;BME280;54510;42.016;23.098;2023-03-23T05:26:35;-21353.09;;;7.94;73.28
7337;BME280;54510;42.016;23.098;2023-03-23T05:29:00;-21356.44;;;8.06;73.13
7337;BME280;54510;42.016;23.098;2023-03-23T05:31:25;-21361.03;;;8.23;72.35
7337;BME280;54510;42.016;23.098;2023-03-23T05:33:51;-21355.06;;;8.01;73.21
7337;BME280;54510;42.016;23.098;2023-03-23T05:36:16;-21351.44;;;7.88;73.86
7337;BME280;54510;42.016;23.098;2023-03-23T05:38:42;-21351.84;;;7.89;74.29
7337;BME280;54510;42.016;23.098;2023-03-23T05:41:10;-21346.16;;;7.69;74.40
7337;BME280;54510;42.016;23.098;2023-03-23T05:43:35;-21350.06;;;7.83;74.75
7337;BME280;54510;42.016;23.098;2023-03-23T05:46:01;-21348.78;;;7.78;74.39
7337;BME280;54510;42.016;23.098;2023-03-23T05:48:27;-21350.06;;;7.83;74.31
7337;BME280;54510;42.016;23.098;2023-03-23T05:50:53;-21352.28;;;7.91;74.25
7337;BME280;54510;42.016;23.098;2023-03-23T05:53:18;-21357.28;;;8.09;74.09
7337;BME280;54510;42.016;23.098;2023-03-23T05:55:44;-21351.03;;;7.86;73.63
7337;BME280;54510;42.016;23.098;2023-03-23T05:58:10;-21347.53;;;7.74;75.51
7337;BME280;54510;42.016;23.098;2023-03-23T06:00:35;-21358.69;;;8.14;74.29
7337;BME280;54510;42.016;23.098;2023-03-23T06:03:01;-21360.06;;;8.19;73.73
7337;BME280;54510;42.016;23.098;2023-03-23T06:05:26;-21360.78;;;8.22;73.27
7337;BME280;54510;42.016;23.098;2023-03-23T06:07:51;-21362.72;;;8.29;73.46
7337;BME280;54510;42.016;23.098;2023-03-23T06:10:17;-21366.06;;;8.41;72.63
7337;BME280;54510;42.016;23.098;2023-03-23T06:12:43;-21372.31;;;8.64;72.29
7337;BME280;54510;42.016;23.098;2023-03-23T06:15:09;-21374.28;;;8.71;71.90
7337;BME280;54510;42.016;23.098;2023-03-23T06:17:34;-21374.28;;;8.71;71.24
7337;BME280;54510;42.016;23.098;2023-03-23T06:20:01;-21361.03;;;8.23;73.56
7337;BME280;54510;42.016;23.098;2023-03-23T06:22:29;-21374.00;;;8.70;73.05
7337;BME280;54510;42.016;23.098;2023-03-23T06:24:54;-21383.72;;;9.05;71.46
7337;BME280;54510;42.016;23.098;2023-03-23T06:27:22;-21392.06;;;9.36;70.65
7337;BME280;54510;42.016;23.098;2023-03-23T06:29:47;-21395.13;;;9.47;70.41
7337;BME280;54510;42.016;23.098;2023-03-23T06:32:13;-21395.13;;;9.47;69.03
7337;BME280;54510;42.016;23.098;2023-03-23T06:34:40;-21395.81;;;9.49;69.20
7337;BME280;54510;42.016;23.098;2023-03-23T06:37:08;-21398.75;;;9.60;69.65
7337;BME280;54510;42.016;23.098;2023-03-23T06:39:34;-21402.34;;;9.73;69.79
7337;BME280;54510;42.016;23.098;2023-03-23T06:42:00;-21406.25;;;9.87;69.06
7337;BME280;54510;42.016;23.098;2023-03-23T06:44:26;-21415.41;;;10.21;68.89
7337;BME280;54510;42.016;23.098;2023-03-23T06:46:51;-21412.22;;;10.09;68.46
7337;BME280;54510;42.016;23.098;2023-03-23T06:49:16;-21408.34;;;9.95;69.20
7337;BME280;54510;42.016;23.098;2023-03-23T06:51:42;-21407.34;;;9.91;69.13
7337;BME280;54510;42.016;23.098;2023-03-23T06:54:07;-21412.63;;;10.11;68.71
7337;BME280;54510;42.016;23.098;2023-03-23T06:56:32;-21418.91;;;10.34;68.15
7337;BME280;54510;42.016;23.098;2023-03-23T06:58:58;-21418.63;;;10.33;68.36
7337;BME280;54510;42.016;23.098;2023-03-23T07:01:23;-21421.13;;;10.42;68.34
7337;BME280;54510;42.016;23.098;2023-03-23T07:03:48;-21421.53;;;10.43;68.09
7337;BME280;54510;42.016;23.098;2023-03-23T07:06:14;-21419.72;;;10.37;68.24
7337;BME280;54510;42.016;23.098;2023-03-23T07:08:39;-21418.47;;;10.32;68.71
7337;BME280;54510;42.016;23.098;2023-03-23T07:11:04;-21425.41;;;10.57;68.23
7337;BME280;54510;42.016;23.098;2023-03-23T07:13:30;-21424.03;;;10.52;68.14
7337;BME280;54510;42.016;23.098;2023-03-23T07:15:56;-21429.16;;;10.71;68.13
7337;BME280;54510;42.016;23.098;2023-03-23T07:18:22;-21433.75;;;10.88;67.87
7337;BME280;54510;42.016;23.098;2023-03-23T07:20:48;-21439.72;;;11.09;67.18
7337;BME280;54510;42.016;23.098;2023-03-23T07:23:14;-21443.19;;;11.22;66.61
7337;BME280;54510;42.016;23.098;2023-03-23T07:25:39;-21438.75;;;11.06;66.67
7337;BME280;54510;42.016;23.098;2023-03-23T07:28:05;-21436.94;;;10.99;66.75
7337;BME280;54510;42.016;23.098;2023-03-23T07:30:31;-21443.47;;;11.23;66.83
7337;BME280;54510;42.016;23.098;2023-03-23T07:32:57;-21448.03;;;11.40;65.77
7337;BME280;54510;42.016;23.098;2023-03-23T07:35:23;-21446.22;;;11.33;66.55
7337;BME280;54510;42.016;23.098;2023-03-23T07:37:48;-21449.00;;;11.43;66.66
7337;BME280;54510;42.016;23.098;2023-03-23T07:40:14;-21443.47;;;11.23;66.74
7337;BME280;54510;42.016;23.098;2023-03-23T07:42:40;-21444.00;;;11.25;66.72
7337;BME280;54510;42.016;23.098;2023-03-23T07:45:06;-21443.47;;;11.23;67.00
7337;BME280;54510;42.016;23.098;2023-03-23T07:47:32;-21444.97;;;11.29;67.14
7337;BME280;54510;42.016;23.098;2023-03-23T07:49:57;-21454.84;;;11.65;66.20
7337;BME280;54510;42.016;23.098;2023-03-23T07:52:22;-21458.03;;;11.76;65.75
7337;BME280;54510;42.016;23.098;2023-03-23T07:54:48;-21456.91;;;11.72;65.91
7337;BME280;54510;42.016;23.098;2023-03-23T07:57:14;-21459.00;;;11.80;65.19
7337;BME280;54510;42.016;23.098;2023-03-23T07:59:39;-21463.16;;;11.95;65.18
7337;BME280;54510;42.016;23.098;2023-03-23T08:02:07;-21469.66;;;12.19;64.23
7337;BME280;54510;42.016;23.098;2023-03-23T08:04:32;-21463.97;;;11.98;65.63
7337;BME280;54510;42.016;23.098;2023-03-23T08:07:01;-21468.00;;;12.13;64.68
7337;BME280;54510;42.016;23.098;2023-03-23T08:09:27;-21470.91;;;12.23;64.99
7337;BME280;54510;42.016;23.098;2023-03-23T08:11:52;-21471.75;;;12.26;64.26
7337;BME280;54510;42.016;23.098;2023-03-23T08:14:17;-21477.16;;;12.46;63.86
7337;BME280;54510;42.016;23.098;2023-03-23T08:16:43;-21474.38;;;12.36;63.99
7337;BME280;54510;42.016;23.098;2023-03-23T08:19:08;-21476.16;;;12.43;63.81
7337;BME280;54510;42.016;23.098;2023-03-23T08:21:34;-21473.81;;;12.34;64.17
7337;BME280;54510;42.016;23.098;2023-03-23T08:24:00;-21480.59;;;12.59;64.10
7337;BME280;54510;42.016;23.098;2023-03-23T08:26:26;-21483.38;;;12.69;63.17
7337;BME280;54510;42.016;23.098;2023-03-23T08:28:52;-21488.09;;;12.86;62.39
7337;BME280;54510;42.016;23.098;2023-03-23T08:31:18;-21485.03;;;12.75;62.71
7337;BME280;54510;42.016;23.098;2023-03-23T08:33:43;-21491.00;;;12.97;62.07
7337;BME280;54510;42.016;23.098;2023-03-23T08:36:09;-21494.03;;;13.08;62.00
7337;BME280;54510;42.016;23.098;2023-03-23T08:38:34;-21491.53;;;12.99;61.79
7337;BME280;54510;42.016;23.098;2023-03-23T08:41:00;-21491.41;;;12.98;61.96
7337;BME280;54510;42.016;23.098;2023-03-23T08:43:25;-21497.09;;;13.19;61.86
7337;BME280;54510;42.016;23.098;2023-03-23T08:45:52;-21500.97;;;13.33;61.49
7337;BME280;54510;42.016;23.098;2023-03-23T08:48:17;-21503.03;;;13.41;60.82
7337;BME280;54510;42.016;23.098;2023-03-23T08:50:43;-21505.53;;;13.50;60.63
7337;BME280;54510;42.016;23.098;2023-03-23T08:53:08;-21507.72;;;13.58;60.13
7337;BME280;54510;42.016;23.098;2023-03-23T08:55:33;-21511.47;;;13.72;61.04
7337;BME280;54510;42.016;23.098;2023-03-23T08:57:59;-21519.34;;;14.01;59.46
7337;BME280;54510;42.016;23.098;2023-03-23T09:00:24;-21519.06;;;14.00;59.23
7337;BME280;54510;42.016;23.098;2023-03-23T09:02:51;-21519.34;;;14.01;59.13
7337;BME280;54510;42.016;23.098;2023-03-23T09:05:19;-21524.59;;;14.20;58.71
7337;BME280;54510;42.016;23.098;2023-03-23T09:07:46;-21524.06;;;14.18;58.35
7337;BME280;54510;42.016;23.098;2023-03-23T09:10:12;-21529.84;;;14.39;57.87
7337;BME280;54510;42.016;23.098;2023-03-23T09:12:38;-21533.03;;;14.51;57.98
7337;BME280;54510;42.016;23.098;2023-03-23T09:15:04;-21537.59;;;14.68;57.22
7337;BME280;54510;42.016;23.098;2023-03-23T09:17:35;-21538.16;;;14.70;56.62
7337;BME280;54510;42.016;23.098;2023-03-23T09:20:00;-21536.63;;;14.64;56.79
7337;BME280;54510;42.016;23.098;2023-03-23T09:22:25;-21539.81;;;14.76;56.87
7337;BME280;54510;42.016;23.098;2023-03-23T09:24:51;-21542.84;;;14.87;56.48
7337;BME280;54510;42.016;23.098;2023-03-23T09:27:17;-21554.28;;;15.29;55.53
7337;BME280;54510;42.016;23.098;2023-03-23T09:29:42;-21559.94;;;15.50;55.01
7337;BME280;54510;42.016;23.098;2023-03-23T09:32:09;-21563.69;;;15.63;54.68
7337;BME280;54510;42.016;23.098;2023-03-23T09:34:34;-21562.59;;;15.59;54.54
7337;BME280;54510;42.016;23.098;2023-03-23T09:37:01;-21565.47;;;15.70;54.82
7337;BME280;54510;42.016;23.098;2023-03-23T09:39:29;-21572.50;;;15.96;54.15
7337;BME280;54510;42.016;23.098;2023-03-23T09:44:57;-21580.91;;;16.27;52.81
7337;BME280;54510;42.016;23.098;2023-03-23T09:52:44;-21594.00;;;16.75;51.11
7337;BME280;54510;42.016;23.098;2023-03-23T09:55:12;-21596.91;;;16.85;51.32
7337;BME280;54510;42.016;23.098;2023-03-23T09:57:47;-21593.47;;;16.73;52.26
7337;BME280;54510;42.016;23.098;2023-03-23T10:07:57;-21605.16;;;17.16;49.93
7337;BME280;54510;42.016;23.098;2023-03-23T10:10:26;-21609.16;;;17.30;49.40
7337;BME280;54510;42.016;23.098;2023-03-23T10:12:56;-21608.75;;;17.29;49.35
7337;BME280;54510;42.016;23.098;2023-03-23T10:15:26;-21606.81;;;17.22;48.85
7337;BME280;54510;42.016;23.098;2023-03-23T10:18:12;-21608.06;;;17.26;47.93
7337;BME280;54510;42.016;23.098;2023-03-23T10:25:37;-21601.59;;;17.03;48.13
7337;BME280;54510;42.016;23.098;2023-03-23T10:28:13;-21617.41;;;17.61;47.31
7337;BME280;54510;42.016;23.098;2023-03-23T10:30:42;-21625.53;;;17.91;46.27
7337;BME280;54510;42.016;23.098;2023-03-23T10:36:14;-21624.03;;;17.85;47.29
7337;BME280;54510;42.016;23.098;2023-03-23T10:41:17;-21634.34;;;18.23;46.42
7337;BME280;54510;42.016;23.098;2023-03-23T10:43:43;-21636.25;;;18.30;46.15
7337;BME280;54510;42.016;23.098;2023-03-23T10:48:45;-21643.16;;;18.56;45.60
7337;BME280;54510;42.016;23.098;2023-03-23T10:51:13;-21643.56;;;18.57;44.75
7337;BME280;54510;42.016;23.098;2023-03-23T10:53:45;-21639.16;;;18.41;45.39
7337;BME280;54510;42.016;23.098;2023-03-23T10:56:25;-21637.78;;;18.36;45.43
7337;BME280;54510;42.016;23.098;2023-03-23T10:58:52;-21645.19;;;18.63;44.93
7337;BME280;54510;42.016;23.098;2023-03-23T11:01:19;-21646.44;;;18.68;46.50
7337;BME280;54510;42.016;23.098;2023-03-23T11:03:48;-21661.28;;;19.22;45.29
7337;BME280;54510;42.016;23.098;2023-03-23T11:06:24;-21667.31;;;19.45;44.01
7337;BME280;54510;42.016;23.098;2023-03-23T11:08:55;-21668.28;;;19.48;43.88
7337;BME280;54510;42.016;23.098;2023-03-23T11:11:27;-21674.84;;;19.72;43.38
7337;BME280;54510;42.016;23.098;2023-03-23T11:14:03;-21662.63;;;19.27;43.58
7337;BME280;54510;42.016;23.098;2023-03-23T11:16:41;-21659.63;;;19.16;43.15
7337;BME280;54510;42.016;23.098;2023-03-23T11:19:21;-21669.50;;;19.53;43.87
7337;BME280;54510;42.016;23.098;2023-03-23T11:21:50;-21675.53;;;19.75;43.40
7337;BME280;54510;42.016;23.098;2023-03-23T11:24:16;-21676.50;;;19.79;40.43
7337;BME280;54510;42.016;23.098;2023-03-23T11:26:43;-21663.19;;;19.29;39.20
7337;BME280;54510;42.016;23.098;2023-03-23T11:29:22;-21671.69;;;19.61;39.02
7337;BME280;54510;42.016;23.098;2023-03-23T11:31:49;-21664.56;;;19.34;38.84
7337;BME280;54510;42.016;23.098;2023-03-23T11:34:20;-21676.38;;;19.78;38.90
7337;BME280;54510;42.016;23.098;2023-03-23T11:41:48;-21661.81;;;19.24;38.15
7337;BME280;54510;42.016;23.098;2023-03-23T11:44:14;-21671.69;;;19.61;38.20
7337;BME280;54510;42.016;23.098;2023-03-23T11:46:58;-21665.66;;;19.39;38.53
7337;BME280;54510;42.016;23.098;2023-03-23T11:49:38;-21662.78;;;19.28;38.51
7337;BME280;54510;42.016;23.098;2023-03-23T11:54:43;-21679.81;;;19.91;38.25
7337;BME280;54510;42.016;23.098;2023-03-23T11:57:12;-21687.19;;;20.18;37.92
7337;BME280;54510;42.016;23.098;2023-03-23T11:59:39;-21691.72;;;20.35;37.63
7337;BME280;54510;42.016;23.098;2023-03-23T12:07:17;-21683.78;;;20.05;37.11
7337;BME280;54510;42.016;23.098;2023-03-23T12:30:12;-21706.81;;;20.90;34.54
7337;BME280;54510;42.016;23.098;2023-03-23T12:37:54;-21701.31;;;20.70;34.60
7337;BME280;54510;42.016;23.098;2023-03-23T12:43:01;-21707.22;;;20.92;34.34
7337;BME280;54510;42.016;23.098;2023-03-23T12:48:13;-21713.94;;;21.17;34.11
7337;BME280;54510;42.016;23.098;2023-03-23T12:53:09;-21708.59;;;20.97;33.31
7337;BME280;54510;42.016;23.098;2023-03-23T12:55:42;-21702.69;;;20.75;32.92
7337;BME280;54510;42.016;23.098;2023-03-23T13:06:07;-21720.91;;;21.43;33.45
7337;BME280;54510;42.016;23.098;2023-03-23T13:08:40;-21727.75;;;21.68;32.13
7337;BME280;54510;42.016;23.098;2023-03-23T13:11:11;-21724.47;;;21.56;31.98
7337;BME280;54510;42.016;23.098;2023-03-23T13:16:13;-21736.09;;;21.99;32.46
7337;BME280;54510;42.016;23.098;2023-03-23T13:21:19;-21728.97;;;21.73;32.22
7337;BME280;54510;42.016;23.098;2023-03-23T13:23:48;-21737.47;;;22.04;32.25
7337;BME280;54510;42.016;23.098;2023-03-23T13:26:17;-21730.75;;;21.79;32.34
7337;BME280;54510;42.016;23.098;2023-03-23T13:31:22;-21741.97;;;22.21;31.88
7337;BME280;54510;42.016;23.098;2023-03-23T13:33:52;-21736.50;;;22.00;31.47
7337;BME280;54510;42.016;23.098;2023-03-23T13:36:28;-21753.47;;;22.63;31.69
7337;BME280;54510;42.016;23.098;2023-03-23T13:38:54;-21755.38;;;22.70;30.24
7337;BME280;54510;42.016;23.098;2023-03-23T13:41:21;-21745.53;;;22.34;30.99
7337;BME280;54510;42.016;23.098;2023-03-23T13:43:47;-21757.00;;;22.76;30.99
7337;BME280;54510;42.016;23.098;2023-03-23T13:49:15;-21763.44;;;23.00;31.05
7337;BME280;54510;42.016;23.098;2023-03-23T13:51:34;-21750.84;;;22.54;30.77
7337;BME280;54510;42.016;23.098;2023-03-23T13:54:13;-21742.94;;;22.24;31.42
7337;BME280;54510;42.016;23.098;2023-03-23T13:56:58;-21762.22;;;22.96;30.58
7337;BME280;54510;42.016;23.098;2023-03-23T14:01:52;-21733.63;;;21.90;32.59
7337;BME280;54510;42.016;23.098;2023-03-23T14:04:18;-21738.56;;;22.08;32.92
7337;BME280;54510;42.016;23.098;2023-03-23T14:06:44;-21755.66;;;22.71;31.88
7337;BME280;54510;42.016;23.098;2023-03-23T14:09:44;-21755.78;;;22.72;31.53
7337;BME280;54510;42.016;23.098;2023-03-23T14:12:14;-21754.28;;;22.66;31.34
7337;BME280;54510;42.016;23.098;2023-03-23T14:14:43;-21774.34;;;23.41;30.59
7337;BME280;54510;42.016;23.098;2023-03-23T14:17:16;-21750.31;;;22.52;31.41
7337;BME280;54510;42.016;23.098;2023-03-23T14:19:44;-21764.81;;;23.05;30.38
7337;BME280;54510;42.016;23.098;2023-03-23T14:22:18;-21744.56;;;22.30;31.62
7337;BME280;54510;42.016;23.098;2023-03-23T14:24:44;-21738.97;;;22.10;31.80
7337;BME280;54510;42.016;23.098;2023-03-23T14:27:17;-21756.06;;;22.73;31.07
7337;BME280;54510;42.016;23.098;2023-03-23T14:29:43;-21761.78;;;22.94;30.75
7337;BME280;54510;42.016;23.098;2023-03-23T14:32:16;-21757.69;;;22.79;30.47
7337;BME280;54510;42.016;23.098;2023-03-23T14:34:42;-21745.53;;;22.34;31.06
7337;BME280;54510;42.016;23.098;2023-03-23T14:37:13;-21753.03;;;22.62;30.64
7337;BME280;54510;42.016;23.098;2023-03-23T14:39:40;-21743.34;;;22.26;30.69
7337;BME280;54510;42.016;23.098;2023-03-23T14:42:16;-21750.59;;;22.53;30.50
7337;BME280;54510;42.016;23.098;2023-03-23T14:44:46;-21748.41;;;22.44;30.39
7337;BME280;54510;42.016;23.098;2023-03-23T14:47:16;-21751.53;;;22.56;30.28
7337;BME280;54510;42.016;23.098;2023-03-23T14:49:44;-21756.06;;;22.73;29.91
7337;BME280;54510;42.016;23.098;2023-03-23T14:52:10;-21752.50;;;22.60;29.42
7337;BME280;54510;42.016;23.098;2023-03-23T14:54:36;-21761.66;;;22.94;28.99
7337;BME280;54510;42.016;23.098;2023-03-23T14:57:10;-21748.81;;;22.46;29.13
7337;BME280;54510;42.016;23.098;2023-03-23T14:59:38;-21752.38;;;22.59;29.34